sensor_id;sensor_type;location;lat;lon;timestamp;temperature;humidity
37408;DHT22;24866;50.248;8.252;2023-09-19T00:01:15;16.90;99.90
37408;DHT22;24866;50.248;8.252;2023-09-19T00:03:48;16.80;99.90
37408;DHT22;24866;50.248;8.252;2023-09-19T00:06:18;16.90;99.90
37408;DHT22;24866;50.248;8.252;2023-09-19T00:08:49;16.90;99.90
37408;DHT22;24866;50.248;8.252;2023-09-19T00:11:20;16.80;99.90
37408;DHT22;24866;50.248;8.252;2023-09-19T00:13:50;16.80;99.90
37408;DHT22;24866;50.248;8.252;2023-09-19T00:16:20;16.80;99.90
37408;DHT22;24866;50.248;8.252;2023-09-19T00:18:50;16.80;99.90
37408;DHT22;24866;50.248;8.252;2023-09-19T00:21:21;16.80;99.90
37408;DHT22;24866;50.248;8.252;2023-09-19T00:23:50;16.80;99.90
37408;DHT22;24866;50.248;8.252;2023-09-19T00:26:22;16.80;99.90
37408;DHT22;24866;50.248;8.252;2023-09-19T00:28:52;16.80;99.90
37408;DHT22;24866;50.248;8.252;2023-09-19T00:31:22;16.80;99.90
37408;DHT22;24866;50.248;8.252;2023-09-19T00:33:53;16.70;99.90
37408;DHT22;24866;50.248;8.252;2023-09-19T00:36:25;16.70;99.90
37408;DHT22;24866;50.248;8.252;2023-09-19T00:38:55;16.70;99.90
37408;DHT22;24866;50.248;8.252;2023-09-19T00:41:26;16.70;99.90
37408;DHT22;24866;50.248;8.252;2023-09-19T00:43:58;16.70;99.90
37408;DHT22;24866;50.248;8.252;2023-09-19T00:46:32;16.70;99.90
37408;DHT22;24866;50.248;8.252;2023-09-19T00:49:02;16.70;99.90
37408;DHT22;24866;50.248;8.252;2023-09-19T00:51:32;16.60;99.90
37408;DHT22;24866;50.248;8.252;2023-09-19T00:54:02;16.60;99.90
37408;DHT22;24866;50.248;8.252;2023-09-19T00:56:34;16.60;99.90
37408;DHT22;24866;50.248;8.252;2023-09-19T00:59:06;16.70;99.90
37408;DHT22;24866;50.248;8.252;2023-09-19T01:01:36;16.70;99.90
37408;DHT22;24866;50.248;8.252;2023-09-19T01:04:08;16.60;99.90
37408;DHT22;24866;50.248;8.252;2023-09-19T01:06:38;16.70;99.90
37408;DHT22;24866;50.248;8.252;2023-09-19T01:09:08;16.60;99.90
37408;DHT22;24866;50.248;8.252;2023-09-19T01:11:43;16.50;99.90
37408;DHT22;24866;50.248;8.252;2023-09-19T01:14:23;16.40;99.90
37408;DHT22;24866;50.248;8.252;2023-09-19T01:17:03;16.30;99.90
37408;DHT22;24866;50.248;8.252;2023-09-19T01:22:56;16.20;99.90
37408;DHT22;24866;50.248;8.252;2023-09-19T01:25:59;16.10;99.90
37408;DHT22;24866;50.248;8.252;2023-09-19T01:28:43;16.10;99.90
37408;DHT22;24866;50.248;8.252;2023-09-19T01:31:17;16.10;99.90
37408;DHT22;24866;50.248;8.252;2023-09-19T01:33:59;16.00;99.90
37408;DHT22;24866;50.248;8.252;2023-09-19T01:36:31;16.00;99.90
37408;DHT22;24866;50.248;8.252;2023-09-19T01:39:04;16.00;99.90
37408;DHT22;24866;50.248;8.252;2023-09-19T01:41:54;16.00;99.90
37408;DHT22;24866;50.248;8.252;2023-09-19T01:44:38;15.90;99.90
37408;DHT22;24866;50.248;8.252;2023-09-19T01:47:18;16.00;99.90
37408;DHT22;24866;50.248;8.252;2023-09-19T01:49:55;15.90;99.90
37408;DHT22;24866;50.248;8.252;2023-09-19T01:52:31;15.80;99.90
37408;DHT22;24866;50.248;8.252;2023-09-19T01:55:07;15.80;99.90
37408;DHT22;24866;50.248;8.252;2023-09-19T01:57:43;15.90;99.90
37408;DHT22;24866;50.248;8.252;2023-09-19T02:00:18;15.90;99.90
37408;DHT22;24866;50.248;8.252;2023-09-19T02:02:51;15.70;99.90
37408;DHT22;24866;50.248;8.252;2023-09-19T02:05:25;15.70;99.90
37408;DHT22;24866;50.248;8.252;2023-09-19T02:07:56;15.70;99.90
37408;DHT22;24866;50.248;8.252;2023-09-19T02:10:27;15.70;99.90
37408;DHT22;24866;50.248;8.252;2023-09-19T02:12:57;15.70;99.90
37408;DHT22;24866;50.248;8.252;2023-09-19T02:15:27;15.60;99.90
37408;DHT22;24866;50.248;8.252;2023-09-19T02:17:58;15.60;99.90
37408;DHT22;24866;50.248;8.252;2023-09-19T02:20:28;15.60;99.90
37408;DHT22;24866;50.248;8.252;2023-09-19T02:22:58;15.60;99.90
37408;DHT22;24866;50.248;8.252;2023-09-19T02:25:28;15.60;99.90
37408;DHT22;24866;50.248;8.252;2023-09-19T02:27:59;15.40;99.90
37408;DHT22;24866;50.248;8.252;2023-09-19T02:30:31;15.30;99.90
37408;DHT22;24866;50.248;8.252;2023-09-19T02:33:03;15.30;99.90
37408;DHT22;24866;50.248;8.252;2023-09-19T02:35:33;15.30;99.90
37408;DHT22;24866;50.248;8.252;2023-09-19T02:38:04;15.30;99.90
37408;DHT22;24866;50.248;8.252;2023-09-19T02:40:35;15.20;99.90
37408;DHT22;24866;50.248;8.252;2023-09-19T02:43:05;15.20;99.90
37408;DHT22;24866;50.248;8.252;2023-09-19T02:45:35;15.20;99.90
37408;DHT22;24866;50.248;8.252;2023-09-19T02:48:07;15.10;99.90
37408;DHT22;24866;50.248;8.252;2023-09-19T02:50:36;15.20;99.90
37408;DHT22;24866;50.248;8.252;2023-09-19T02:53:08;15.20;99.90
37408;DHT22;24866;50.248;8.252;2023-09-19T02:55:39;15.10;99.90
37408;DHT22;24866;50.248;8.252;2023-09-19T02:58:09;15.10;99.90
37408;DHT22;24866;50.248;8.252;2023-09-19T03:00:40;15.00;99.90
37408;DHT22;24866;50.248;8.252;2023-09-19T03:03:12;15.10;99.90
37408;DHT22;24866;50.248;8.252;2023-09-19T03:05:44;15.00;99.90
37408;DHT22;24866;50.248;8.252;2023-09-19T03:08:15;15.00;99.90
37408;DHT22;24866;50.248;8.252;2023-09-19T03:10:46;15.00;99.90
37408;DHT22;24866;50.248;8.252;2023-09-19T03:13:16;14.90;99.90
37408;DHT22;24866;50.248;8.252;2023-09-19T03:15:46;14.90;99.90
37408;DHT22;24866;50.248;8.252;2023-09-19T03:18:20;14.90;99.90
37408;DHT22;24866;50.248;8.252;2023-09-19T03:20:53;14.90;99.90
37408;DHT22;24866;50.248;8.252;2023-09-19T03:23:23;14.90;99.90
37408;DHT22;24866;50.248;8.252;2023-09-19T03:25:54;14.80;99.90
37408;DHT22;24866;50.248;8.252;2023-09-19T03:28:25;14.80;99.90
37408;DHT22;24866;50.248;8.252;2023-09-19T03:30:59;14.80;99.90
37408;DHT22;24866;50.248;8.252;2023-09-19T03:33:31;14.80;99.90
37408;DHT22;24866;50.248;8.252;2023-09-19T03:36:02;14.80;99.90
37408;DHT22;24866;50.248;8.252;2023-09-19T03:38:34;14.80;99.90
37408;DHT22;24866;50.248;8.252;2023-09-19T03:41:03;14.80;99.90
37408;DHT22;24866;50.248;8.252;2023-09-19T03:43:34;14.70;99.90
37408;DHT22;24866;50.248;8.252;2023-09-19T03:46:04;14.70;99.90
37408;DHT22;24866;50.248;8.252;2023-09-19T03:48:36;14.60;99.90
37408;DHT22;24866;50.248;8.252;2023-09-19T03:51:06;14.60;99.90
37408;DHT22;24866;50.248;8.252;2023-09-19T03:53:36;14.60;99.90
37408;DHT22;24866;50.248;8.252;2023-09-19T03:56:05;14.60;99.90
37408;DHT22;24866;50.248;8.252;2023-09-19T03:58:36;14.80;99.90
37408;DHT22;24866;50.248;8.252;2023-09-19T04:01:08;14.70;99.90
37408;DHT22;24866;50.248;8.252;2023-09-19T04:03:39;14.80;99.90
37408;DHT22;24866;50.248;8.252;2023-09-19T04:06:16;14.80;99.90
37408;DHT22;24866;50.248;8.252;2023-09-19T04:08:46;14.70;99.90
37408;DHT22;24866;50.248;8.252;2023-09-19T04:11:16;14.70;99.90
37408;DHT22;24866;50.248;8.252;2023-09-19T04:13:46;14.70;99.90
37408;DHT22;24866;50.248;8.252;2023-09-19T04:16:17;14.70;99.90
37408;DHT22;24866;50.248;8.252;2023-09-19T04:18:49;14.80;99.90
37408;DHT22;24866;50.248;8.252;2023-09-19T04:21:19;14.80;99.90
37408;DHT22;24866;50.248;8.252;2023-09-19T04:23:49;14.80;99.90
37408;DHT22;24866;50.248;8.252;2023-09-19T04:26:19;14.80;99.90
37408;DHT22;24866;50.248;8.252;2023-09-19T04:28:50;14.80;99.90
37408;DHT22;24866;50.248;8.252;2023-09-19T04:31:19;14.90;99.90
37408;DHT22;24866;50.248;8.252;2023-09-19T04:33:51;14.80;99.90
37408;DHT22;24866;50.248;8.252;2023-09-19T04:36:21;14.90;99.90
37408;DHT22;24866;50.248;8.252;2023-09-19T04:38:51;14.90;99.90
37408;DHT22;24866;50.248;8.252;2023-09-19T04:41:22;14.70;99.90
37408;DHT22;24866;50.248;8.252;2023-09-19T04:43:53;14.70;99.90
37408;DHT22;24866;50.248;8.252;2023-09-19T04:46:24;14.70;99.90
37408;DHT22;24866;50.248;8.252;2023-09-19T04:48:55;14.80;99.90
37408;DHT22;24866;50.248;8.252;2023-09-19T04:51:25;14.90;99.90
37408;DHT22;24866;50.248;8.252;2023-09-19T04:53:57;14.90;99.90
37408;DHT22;24866;50.248;8.252;2023-09-19T04:56:27;14.90;99.90
37408;DHT22;24866;50.248;8.252;2023-09-19T04:58:57;14.80;99.90
37408;DHT22;24866;50.248;8.252;2023-09-19T05:01:27;14.90;99.90
37408;DHT22;24866;50.248;8.252;2023-09-19T05:03:58;14.70;99.90
37408;DHT22;24866;50.248;8.252;2023-09-19T05:06:28;14.80;99.90
37408;DHT22;24866;50.248;8.252;2023-09-19T05:08:58;14.80;99.90
37408;DHT22;24866;50.248;8.252;2023-09-19T05:11:28;14.70;99.90
37408;DHT22;24866;50.248;8.252;2023-09-19T05:13:59;14.60;99.90
37408;DHT22;24866;50.248;8.252;2023-09-19T05:16:32;14.50;99.90
37408;DHT22;24866;50.248;8.252;2023-09-19T05:19:03;14.60;99.90
37408;DHT22;24866;50.248;8.252;2023-09-19T05:21:33;14.60;99.90
37408;DHT22;24866;50.248;8.252;2023-09-19T05:24:03;14.60;99.90
37408;DHT22;24866;50.248;8.252;2023-09-19T05:26:34;14.60;99.90
37408;DHT22;24866;50.248;8.252;2023-09-19T05:29:04;14.50;99.90
37408;DHT22;24866;50.248;8.252;2023-09-19T05:31:36;14.50;99.90
37408;DHT22;24866;50.248;8.252;2023-09-19T05:34:10;14.50;99.90
37408;DHT22;24866;50.248;8.252;2023-09-19T05:36:40;14.40;99.90
37408;DHT22;24866;50.248;8.252;2023-09-19T05:39:10;14.50;99.90
37408;DHT22;24866;50.248;8.252;2023-09-19T05:41:40;14.50;99.90
37408;DHT22;24866;50.248;8.252;2023-09-19T05:44:11;14.40;99.90
37408;DHT22;24866;50.248;8.252;2023-09-19T05:46:40;14.40;99.90
37408;DHT22;24866;50.248;8.252;2023-09-19T05:49:12;14.40;99.90
37408;DHT22;24866;50.248;8.252;2023-09-19T05:51:42;14.40;99.90
37408;DHT22;24866;50.248;8.252;2023-09-19T05:54:11;14.40;99.90
37408;DHT22;24866;50.248;8.252;2023-09-19T05:56:41;14.40;99.90
37408;DHT22;24866;50.248;8.252;2023-09-19T05:59:11;14.40;99.90
37408;DHT22;24866;50.248;8.252;2023-09-19T06:01:42;14.50;99.90
37408;DHT22;24866;50.248;8.252;2023-09-19T06:04:13;14.50;99.90
37408;DHT22;24866;50.248;8.252;2023-09-19T06:06:43;14.50;99.90
37408;DHT22;24866;50.248;8.252;2023-09-19T06:09:13;14.50;99.90
37408;DHT22;24866;50.248;8.252;2023-09-19T06:11:43;14.60;99.90
37408;DHT22;24866;50.248;8.252;2023-09-19T06:14:12;14.60;99.90
37408;DHT22;24866;50.248;8.252;2023-09-19T06:16:43;14.70;99.90
37408;DHT22;24866;50.248;8.252;2023-09-19T06:19:14;14.70;99.90
37408;DHT22;24866;50.248;8.252;2023-09-19T06:21:43;14.60;99.90
37408;DHT22;24866;50.248;8.252;2023-09-19T06:24:15;14.70;99.90
37408;DHT22;24866;50.248;8.252;2023-09-19T06:26:44;14.70;99.90
37408;DHT22;24866;50.248;8.252;2023-09-19T06:29:14;14.70;99.90
37408;DHT22;24866;50.248;8.252;2023-09-19T06:31:44;14.80;99.90
37408;DHT22;24866;50.248;8.252;2023-09-19T06:34:15;14.80;99.90
37408;DHT22;24866;50.248;8.252;2023-09-19T06:36:46;14.90;99.90
37408;DHT22;24866;50.248;8.252;2023-09-19T06:39:16;14.90;99.90
37408;DHT22;24866;50.248;8.252;2023-09-19T06:41:47;15.00;99.90
37408;DHT22;24866;50.248;8.252;2023-09-19T06:44:17;14.90;99.90
37408;DHT22;24866;50.248;8.252;2023-09-19T06:46:47;14.90;99.90
37408;DHT22;24866;50.248;8.252;2023-09-19T06:49:19;15.00;99.90
37408;DHT22;24866;50.248;8.252;2023-09-19T06:51:49;15.10;99.90
37408;DHT22;24866;50.248;8.252;2023-09-19T06:54:19;15.10;99.90
37408;DHT22;24866;50.248;8.252;2023-09-19T06:56:49;15.10;99.90
37408;DHT22;24866;50.248;8.252;2023-09-19T06:59:19;15.10;99.90
37408;DHT22;24866;50.248;8.252;2023-09-19T07:01:49;15.10;99.90
37408;DHT22;24866;50.248;8.252;2023-09-19T07:04:20;15.10;99.90
37408;DHT22;24866;50.248;8.252;2023-09-19T07:06:51;15.00;99.90
37408;DHT22;24866;50.248;8.252;2023-09-19T07:09:20;15.10;99.90
37408;DHT22;24866;50.248;8.252;2023-09-19T07:11:50;15.10;99.90
37408;DHT22;24866;50.248;8.252;2023-09-19T07:14:20;15.20;99.90
37408;DHT22;24866;50.248;8.252;2023-09-19T07:16:50;15.20;99.90
37408;DHT22;24866;50.248;8.252;2023-09-19T07:19:21;15.20;99.90
37408;DHT22;24866;50.248;8.252;2023-09-19T07:21:51;15.30;99.90
37408;DHT22;24866;50.248;8.252;2023-09-19T07:24:22;15.40;99.90
37408;DHT22;24866;50.248;8.252;2023-09-19T07:26:52;15.30;99.90
37408;DHT22;24866;50.248;8.252;2023-09-19T07:29:22;15.30;99.90
37408;DHT22;24866;50.248;8.252;2023-09-19T07:31:52;15.40;99.90
37408;DHT22;24866;50.248;8.252;2023-09-19T07:34:23;15.40;99.90
37408;DHT22;24866;50.248;8.252;2023-09-19T07:36:53;15.40;99.90
37408;DHT22;24866;50.248;8.252;2023-09-19T07:39:23;15.50;99.90
37408;DHT22;24866;50.248;8.252;2023-09-19T07:41:53;15.50;99.90
37408;DHT22;24866;50.248;8.252;2023-09-19T07:44:23;15.40;99.90
37408;DHT22;24866;50.248;8.252;2023-09-19T07:46:54;15.40;99.90
37408;DHT22;24866;50.248;8.252;2023-09-19T07:49:26;15.40;99.90
37408;DHT22;24866;50.248;8.252;2023-09-19T07:51:56;15.40;99.90
37408;DHT22;24866;50.248;8.252;2023-09-19T07:54:27;15.40;99.90
37408;DHT22;24866;50.248;8.252;2023-09-19T07:57:04;15.40;99.90
37408;DHT22;24866;50.248;8.252;2023-09-19T07:59:34;15.50;99.90
37408;DHT22;24866;50.248;8.252;2023-09-19T08:02:05;15.70;99.90
37408;DHT22;24866;50.248;8.252;2023-09-19T08:04:38;15.80;99.90
37408;DHT22;24866;50.248;8.252;2023-09-19T08:07:08;15.80;99.90
37408;DHT22;24866;50.248;8.252;2023-09-19T08:09:39;15.60;99.90
37408;DHT22;24866;50.248;8.252;2023-09-19T08:12:10;15.40;99.90
37408;DHT22;24866;50.248;8.252;2023-09-19T08:14:40;15.40;99.90
37408;DHT22;24866;50.248;8.252;2023-09-19T08:17:10;15.20;99.90
37408;DHT22;24866;50.248;8.252;2023-09-19T08:19:42;15.30;99.90
37408;DHT22;24866;50.248;8.252;2023-09-19T08:22:14;15.40;99.90
37408;DHT22;24866;50.248;8.252;2023-09-19T08:24:45;15.50;99.90
37408;DHT22;24866;50.248;8.252;2023-09-19T08:27:16;15.50;99.90
37408;DHT22;24866;50.248;8.252;2023-09-19T08:29:47;15.60;99.90
37408;DHT22;24866;50.248;8.252;2023-09-19T08:32:18;15.70;99.90
37408;DHT22;24866;50.248;8.252;2023-09-19T08:34:54;15.60;99.90
37408;DHT22;24866;50.248;8.252;2023-09-19T08:37:23;15.90;99.90
37408;DHT22;24866;50.248;8.252;2023-09-19T08:39:53;15.90;99.90
37408;DHT22;24866;50.248;8.252;2023-09-19T08:42:23;16.00;99.90
37408;DHT22;24866;50.248;8.252;2023-09-19T08:44:55;16.00;99.90
37408;DHT22;24866;50.248;8.252;2023-09-19T08:47:30;15.80;99.90
37408;DHT22;24866;50.248;8.252;2023-09-19T08:50:13;15.90;99.90
37408;DHT22;24866;50.248;8.252;2023-09-19T08:52:46;16.10;99.90
37408;DHT22;24866;50.248;8.252;2023-09-19T08:55:17;16.20;99.90
37408;DHT22;24866;50.248;8.252;2023-09-19T08:57:52;16.30;99.90
37408;DHT22;24866;50.248;8.252;2023-09-19T09:00:27;16.30;99.90
37408;DHT22;24866;50.248;8.252;2023-09-19T09:02:59;16.50;99.90
37408;DHT22;24866;50.248;8.252;2023-09-19T09:05:32;16.20;99.90
37408;DHT22;24866;50.248;8.252;2023-09-19T09:08:05;15.90;99.90
37408;DHT22;24866;50.248;8.252;2023-09-19T09:10:35;16.00;99.90
37408;DHT22;24866;50.248;8.252;2023-09-19T09:13:09;16.10;99.90
37408;DHT22;24866;50.248;8.252;2023-09-19T09:15:42;16.20;99.90
37408;DHT22;24866;50.248;8.252;2023-09-19T09:18:13;16.10;99.90
37408;DHT22;24866;50.248;8.252;2023-09-19T09:20:44;16.00;99.90
37408;DHT22;24866;50.248;8.252;2023-09-19T09:23:14;16.10;99.90
37408;DHT22;24866;50.248;8.252;2023-09-19T09:25:48;16.20;99.90
37408;DHT22;24866;50.248;8.252;2023-09-19T09:28:23;16.40;99.90
37408;DHT22;24866;50.248;8.252;2023-09-19T09:30:55;16.80;99.90
37408;DHT22;24866;50.248;8.252;2023-09-19T09:33:25;16.80;99.90
37408;DHT22;24866;50.248;8.252;2023-09-19T09:35:59;16.90;99.90
37408;DHT22;24866;50.248;8.252;2023-09-19T09:38:44;16.90;99.90
37408;DHT22;24866;50.248;8.252;2023-09-19T09:41:16;16.80;99.90
37408;DHT22;24866;50.248;8.252;2023-09-19T09:43:56;16.80;99.90
37408;DHT22;24866;50.248;8.252;2023-09-19T09:46:28;17.00;99.90
37408;DHT22;24866;50.248;8.252;2023-09-19T09:49:22;16.90;99.90
37408;DHT22;24866;50.248;8.252;2023-09-19T09:52:01;16.60;99.90
37408;DHT22;24866;50.248;8.252;2023-09-19T09:54:35;16.80;99.90
37408;DHT22;24866;50.248;8.252;2023-09-19T09:57:07;16.90;99.90
37408;DHT22;24866;50.248;8.252;2023-09-19T09:59:47;16.90;99.90
37408;DHT22;24866;50.248;8.252;2023-09-19T10:02:18;16.80;99.90
37408;DHT22;24866;50.248;8.252;2023-09-19T10:04:54;16.80;99.90
37408;DHT22;24866;50.248;8.252;2023-09-19T10:07:39;17.00;99.90
37408;DHT22;24866;50.248;8.252;2023-09-19T10:10:11;17.00;99.90
37408;DHT22;24866;50.248;8.252;2023-09-19T10:12:55;16.90;99.90
37408;DHT22;24866;50.248;8.252;2023-09-19T10:15:32;17.00;99.90
37408;DHT22;24866;50.248;8.252;2023-09-19T10:18:04;16.90;99.90
37408;DHT22;24866;50.248;8.252;2023-09-19T10:20:37;17.20;99.90
37408;DHT22;24866;50.248;8.252;2023-09-19T10:23:10;17.60;99.90
37408;DHT22;24866;50.248;8.252;2023-09-19T10:25:43;17.60;99.90
37408;DHT22;24866;50.248;8.252;2023-09-19T10:28:15;17.50;99.90
37408;DHT22;24866;50.248;8.252;2023-09-19T10:30:47;17.70;99.90
37408;DHT22;24866;50.248;8.252;2023-09-19T10:33:20;17.80;99.90
37408;DHT22;24866;50.248;8.252;2023-09-19T10:35:51;17.80;99.90
37408;DHT22;24866;50.248;8.252;2023-09-19T10:38:24;17.40;99.90
37408;DHT22;24866;50.248;8.252;2023-09-19T10:40:55;17.20;99.90
37408;DHT22;24866;50.248;8.252;2023-09-19T10:43:30;17.70;99.90
37408;DHT22;24866;50.248;8.252;2023-09-19T10:46:02;17.80;99.90
37408;DHT22;24866;50.248;8.252;2023-09-19T10:48:32;17.30;99.90
37408;DHT22;24866;50.248;8.252;2023-09-19T10:51:06;17.70;99.90
37408;DHT22;24866;50.248;8.252;2023-09-19T10:53:46;17.90;99.90
37408;DHT22;24866;50.248;8.252;2023-09-19T10:56:21;17.70;99.90
37408;DHT22;24866;50.248;8.252;2023-09-19T10:59:05;17.70;99.90
37408;DHT22;24866;50.248;8.252;2023-09-19T11:01:43;17.80;99.90
37408;DHT22;24866;50.248;8.252;2023-09-19T11:04:23;17.60;99.90
37408;DHT22;24866;50.248;8.252;2023-09-19T11:07:04;17.50;99.90
37408;DHT22;24866;50.248;8.252;2023-09-19T11:09:46;17.90;99.90
37408;DHT22;24866;50.248;8.252;2023-09-19T11:12:50;18.00;99.90
37408;DHT22;24866;50.248;8.252;2023-09-19T11:18:56;18.60;99.90
37408;DHT22;24866;50.248;8.252;2023-09-19T11:21:54;18.90;99.90
37408;DHT22;24866;50.248;8.252;2023-09-19T11:24:28;18.50;99.90
37408;DHT22;24866;50.248;8.252;2023-09-19T11:27:13;18.20;99.90
37408;DHT22;24866;50.248;8.252;2023-09-19T11:29:45;18.30;99.90
37408;DHT22;24866;50.248;8.252;2023-09-19T11:39:01;18.70;99.90
37408;DHT22;24866;50.248;8.252;2023-09-19T11:41:40;18.80;99.90
37408;DHT22;24866;50.248;8.252;2023-09-19T11:44:34;19.20;99.90
37408;DHT22;24866;50.248;8.252;2023-09-19T11:47:06;18.80;99.90
37408;DHT22;24866;50.248;8.252;2023-09-19T11:49:40;18.60;99.90
37408;DHT22;24866;50.248;8.252;2023-09-19T11:52:12;18.50;99.90
37408;DHT22;24866;50.248;8.252;2023-09-19T11:54:55;18.70;99.90
37408;DHT22;24866;50.248;8.252;2023-09-19T11:57:26;18.90;99.90
37408;DHT22;24866;50.248;8.252;2023-09-19T11:59:59;19.50;99.90
37408;DHT22;24866;50.248;8.252;2023-09-19T12:02:39;19.30;99.90
37408;DHT22;24866;50.248;8.252;2023-09-19T12:05:09;18.90;99.90
37408;DHT22;24866;50.248;8.252;2023-09-19T12:07:43;19.40;99.90
37408;DHT22;24866;50.248;8.252;2023-09-19T12:10:16;19.30;99.90
37408;DHT22;24866;50.248;8.252;2023-09-19T12:12:47;19.50;99.90
37408;DHT22;24866;50.248;8.252;2023-09-19T12:15:24;19.60;99.90
37408;DHT22;24866;50.248;8.252;2023-09-19T12:17:57;19.50;99.90
37408;DHT22;24866;50.248;8.252;2023-09-19T12:20:42;19.40;99.90
37408;DHT22;24866;50.248;8.252;2023-09-19T12:23:14;19.10;99.90
37408;DHT22;24866;50.248;8.252;2023-09-19T12:25:44;19.50;99.90
37408;DHT22;24866;50.248;8.252;2023-09-19T12:28:16;19.20;99.90
37408;DHT22;24866;50.248;8.252;2023-09-19T12:30:47;19.50;99.90
37408;DHT22;24866;50.248;8.252;2023-09-19T12:33:18;19.20;99.90
37408;DHT22;24866;50.248;8.252;2023-09-19T12:35:49;19.30;99.90
37408;DHT22;24866;50.248;8.252;2023-09-19T12:38:25;19.70;99.90
37408;DHT22;24866;50.248;8.252;2023-09-19T12:40:57;20.10;99.90
37408;DHT22;24866;50.248;8.252;2023-09-19T12:43:29;19.80;99.90
37408;DHT22;24866;50.248;8.252;2023-09-19T12:46:03;19.70;99.90
37408;DHT22;24866;50.248;8.252;2023-09-19T12:48:33;19.80;99.90
37408;DHT22;24866;50.248;8.252;2023-09-19T12:51:05;19.60;99.90
37408;DHT22;24866;50.248;8.252;2023-09-19T12:53:37;19.60;99.90
37408;DHT22;24866;50.248;8.252;2023-09-19T12:56:09;19.80;99.90
37408;DHT22;24866;50.248;8.252;2023-09-19T12:58:51;19.40;99.90
37408;DHT22;24866;50.248;8.252;2023-09-19T13:01:25;19.70;99.90
37408;DHT22;24866;50.248;8.252;2023-09-19T13:04:12;20.10;99.90
37408;DHT22;24866;50.248;8.252;2023-09-19T13:06:44;20.10;99.90
37408;DHT22;24866;50.248;8.252;2023-09-19T13:09:17;20.00;99.90
37408;DHT22;24866;50.248;8.252;2023-09-19T13:11:49;20.00;99.90
37408;DHT22;24866;50.248;8.252;2023-09-19T13:14:22;19.80;99.90
37408;DHT22;24866;50.248;8.252;2023-09-19T13:16:58;19.80;99.90
37408;DHT22;24866;50.248;8.252;2023-09-19T13:19:39;19.70;99.90
37408;DHT22;24866;50.248;8.252;2023-09-19T13:22:40;19.70;99.90
37408;DHT22;24866;50.248;8.252;2023-09-19T13:25:13;19.90;99.90
37408;DHT22;24866;50.248;8.252;2023-09-19T13:27:47;19.70;99.90
37408;DHT22;24866;50.248;8.252;2023-09-19T13:30:20;19.80;99.90
37408;DHT22;24866;50.248;8.252;2023-09-19T13:32:52;20.40;99.90
37408;DHT22;24866;50.248;8.252;2023-09-19T13:35:22;20.20;99.90
37408;DHT22;24866;50.248;8.252;2023-09-19T13:37:52;20.40;99.90
37408;DHT22;24866;50.248;8.252;2023-09-19T13:40:22;20.00;99.90
37408;DHT22;24866;50.248;8.252;2023-09-19T13:42:52;20.00;99.90
37408;DHT22;24866;50.248;8.252;2023-09-19T13:45:22;20.10;99.90
37408;DHT22;24866;50.248;8.252;2023-09-19T13:47:54;20.10;99.90
37408;DHT22;24866;50.248;8.252;2023-09-19T13:50:24;20.40;99.90
37408;DHT22;24866;50.248;8.252;2023-09-19T13:52:55;20.30;99.90
37408;DHT22;24866;50.248;8.252;2023-09-19T13:55:26;20.20;99.90
37408;DHT22;24866;50.248;8.252;2023-09-19T13:57:56;19.70;99.90
37408;DHT22;24866;50.248;8.252;2023-09-19T14:00:26;19.80;99.90
37408;DHT22;24866;50.248;8.252;2023-09-19T14:02:57;20.00;99.90
37408;DHT22;24866;50.248;8.252;2023-09-19T14:05:27;20.20;99.90
37408;DHT22;24866;50.248;8.252;2023-09-19T14:07:58;20.20;99.90
37408;DHT22;24866;50.248;8.252;2023-09-19T14:10:30;20.50;99.90
37408;DHT22;24866;50.248;8.252;2023-09-19T14:13:00;20.80;99.90
37408;DHT22;24866;50.248;8.252;2023-09-19T14:15:30;20.60;99.90
37408;DHT22;24866;50.248;8.252;2023-09-19T14:18:02;20.50;99.90
37408;DHT22;24866;50.248;8.252;2023-09-19T14:20:32;20.30;99.90
37408;DHT22;24866;50.248;8.252;2023-09-19T14:23:03;20.90;99.90
37408;DHT22;24866;50.248;8.252;2023-09-19T14:25:34;20.70;99.90
37408;DHT22;24866;50.248;8.252;2023-09-19T14:28:05;20.90;99.90
37408;DHT22;24866;50.248;8.252;2023-09-19T14:30:36;20.60;99.90
37408;DHT22;24866;50.248;8.252;2023-09-19T14:33:08;20.60;99.90
37408;DHT22;24866;50.248;8.252;2023-09-19T14:35:38;20.40;99.90
37408;DHT22;24866;50.248;8.252;2023-09-19T14:38:08;20.40;99.90
37408;DHT22;24866;50.248;8.252;2023-09-19T14:40:38;20.30;99.90
37408;DHT22;24866;50.248;8.252;2023-09-19T14:43:08;20.00;99.90
37408;DHT22;24866;50.248;8.252;2023-09-19T14:45:38;20.10;99.90
37408;DHT22;24866;50.248;8.252;2023-09-19T14:48:10;20.00;99.90
37408;DHT22;24866;50.248;8.252;2023-09-19T14:50:40;20.10;99.90
37408;DHT22;24866;50.248;8.252;2023-09-19T14:53:12;20.10;99.90
37408;DHT22;24866;50.248;8.252;2023-09-19T14:55:42;19.90;99.90
37408;DHT22;24866;50.248;8.252;2023-09-19T14:58:13;20.10;99.90
37408;DHT22;24866;50.248;8.252;2023-09-19T15:00:43;20.20;99.90
37408;DHT22;24866;50.248;8.252;2023-09-19T15:03:15;20.40;99.90
37408;DHT22;24866;50.248;8.252;2023-09-19T15:05:46;20.10;99.90
37408;DHT22;24866;50.248;8.252;2023-09-19T15:08:16;19.90;99.90
37408;DHT22;24866;50.248;8.252;2023-09-19T15:10:49;19.80;1.00
37408;DHT22;24866;50.248;8.252;2023-09-19T15:13:21;20.00;8.30
37408;DHT22;24866;50.248;8.252;2023-09-19T15:15:52;19.90;1.00
37408;DHT22;24866;50.248;8.252;2023-09-19T15:18:23;20.00;1.00
37408;DHT22;24866;50.248;8.252;2023-09-19T15:20:53;19.80;1.00
37408;DHT22;24866;50.248;8.252;2023-09-19T15:23:23;19.80;1.00
37408;DHT22;24866;50.248;8.252;2023-09-19T15:25:53;19.90;1.00
37408;DHT22;24866;50.248;8.252;2023-09-19T15:28:24;19.70;99.90
37408;DHT22;24866;50.248;8.252;2023-09-19T15:30:57;19.80;99.90
37408;DHT22;24866;50.248;8.252;2023-09-19T15:33:30;20.10;99.90
37408;DHT22;24866;50.248;8.252;2023-09-19T15:36:04;20.30;99.90
37408;DHT22;24866;50.248;8.252;2023-09-19T15:38:57;20.20;99.90
37408;DHT22;24866;50.248;8.252;2023-09-19T15:41:31;20.30;99.90
37408;DHT22;24866;50.248;8.252;2023-09-19T15:44:02;20.30;16.80
37408;DHT22;24866;50.248;8.252;2023-09-19T15:46:33;20.30;1.00
37408;DHT22;24866;50.248;8.252;2023-09-19T15:49:05;20.40;1.00
37408;DHT22;24866;50.248;8.252;2023-09-19T15:51:36;20.50;1.00
37408;DHT22;24866;50.248;8.252;2023-09-19T15:54:09;20.30;1.00
37408;DHT22;24866;50.248;8.252;2023-09-19T15:56:39;20.30;1.00
37408;DHT22;24866;50.248;8.252;2023-09-19T15:59:11;20.50;1.00
37408;DHT22;24866;50.248;8.252;2023-09-19T16:01:42;20.40;99.90
37408;DHT22;24866;50.248;8.252;2023-09-19T16:04:14;20.50;99.90
37408;DHT22;24866;50.248;8.252;2023-09-19T16:06:45;20.60;99.90
37408;DHT22;24866;50.248;8.252;2023-09-19T16:09:15;20.50;99.90
37408;DHT22;24866;50.248;8.252;2023-09-19T16:11:45;20.30;99.90
37408;DHT22;24866;50.248;8.252;2023-09-19T16:14:15;20.50;99.90
37408;DHT22;24866;50.248;8.252;2023-09-19T16:16:45;20.40;99.90
37408;DHT22;24866;50.248;8.252;2023-09-19T16:19:16;20.10;1.00